Time;durP1;ratioP1;P1;durP2;ratioP2;P2;SDS_P1;SDS_P2;PMS_P1;PMS_P2;Temp;Humidity;BMP_temperature;BMP_pressure;BME280_temperature;BME280_humidity;BME280_pressure;Samples;Min_cycle;Max_cycle;Signal;HPM_P1;HPM_P2
2021/08/13 00:01:36;;;;;;;9.45;8.70;;;;;;;24.49;69.23;95989.56;5030299;28;20233;-87
2021/08/13 00:04:14;;;;;;;10.00;8.77;;;;;;;24.50;69.00;95994.59;5029689;28;20241;-86
2021/08/13 00:06:44;;;;;;;10.10;9.20;;;;;;;24.55;68.73;95991.19;5029664;28;20221;-88
2021/08/13 00:09:11;;;;;;;11.10;8.55;;;;;;;24.58;68.34;95988.84;5030616;28;20708;-87
2021/08/13 00:11:45;;;;;;;9.52;8.63;;;;;;;24.67;68.30;95989.94;5030855;28;20229;-87
2021/08/13 00:14:20;;;;;;;10.07;8.43;;;;;;;24.66;68.40;95988.34;5031139;28;20289;-86
2021/08/13 00:16:55;;;;;;;9.90;8.20;;;;;;;24.72;68.10;95995.25;5030168;28;20209;-86
2021/08/13 00:19:24;;;;;;;9.57;8.77;;;;;;;24.73;67.44;95986.31;5029454;28;20206;-88
2021/08/13 00:21:53;;;;;;;9.55;8.65;;;;;;;24.64;68.21;95982.56;5029448;28;20213;-84
2021/08/13 00:24:25;;;;;;;8.80;8.02;;;;;;;24.56;68.32;95983.06;5029912;28;20222;-87
2021/08/13 00:26:51;;;;;;;9.18;8.30;;;;;;;24.52;67.84;95987.22;5029601;28;20202;-87
2021/08/13 00:29:22;;;;;;;9.25;8.45;;;;;;;24.50;68.54;95985.91;5029655;28;20598;-87
2021/08/13 00:31:56;;;;;;;9.15;8.20;;;;;;;24.54;68.42;95989.63;5029371;28;20232;-87
2021/08/13 00:34:22;;;;;;;9.00;8.27;;;;;;;24.53;68.10;95996.72;5029827;28;20252;-84
2021/08/13 00:39:40;;;;;;;8.43;7.72;;;;;;;24.61;67.29;95995.47;5026057;28;20198;-87
2021/08/13 00:42:08;;;;;;;9.05;8.15;;;;;;;24.64;67.03;95987.03;5029306;28;20763;-87
2021/08/13 00:44:34;;;;;;;8.93;8.10;;;;;;;24.61;67.17;95979.66;5029328;28;20249;-88
2021/08/13 00:47:10;;;;;;;9.75;8.25;;;;;;;24.50;67.55;95978.78;5029395;28;20226;-87
2021/08/13 00:49:38;;;;;;;8.68;7.88;;;;;;;24.52;67.53;95979.34;5030302;28;20267;-87
2021/08/13 00:52:08;;;;;;;9.52;8.52;;;;;;;24.44;68.33;95988.50;5030127;28;20590;-86
2021/08/13 00:54:39;;;;;;;8.65;7.85;;;;;;;24.44;68.08;95983.22;5029141;28;20209;-85
2021/08/13 00:57:05;;;;;;;8.73;7.78;;;;;;;24.47;67.55;95983.75;5029525;28;20269;-84
2021/08/13 00:59:32;;;;;;;9.70;7.57;;;;;;;24.51;67.25;95987.47;5029721;28;20194;-85
2021/08/13 01:01:59;;;;;;;8.70;7.90;;;;;;;24.53;67.14;95996.72;5029221;28;20832;-87
2021/08/13 01:04:26;;;;;;;8.77;7.40;;;;;;;24.59;66.72;95995.72;5029015;28;20222;-87
2021/08/13 01:07:03;;;;;;;8.25;7.45;;;;;;;24.54;67.63;95994.88;5029203;28;20317;-84
2021/08/13 01:09:59;;;;;;;8.40;7.60;;;;;;;24.47;67.96;96005.63;5029769;28;20247;-84
2021/08/13 01:12:33;;;;;;;8.35;7.70;;;;;;;24.48;67.33;96012.47;5003809;28;20550;-87
2021/08/13 01:15:12;;;;;;;8.85;7.60;;;;;;;24.52;67.12;96015.41;5028930;28;20733;-87
2021/08/13 01:17:55;;;;;;;7.93;7.32;;;;;;;24.49;67.27;96013.28;5028477;28;20201;-85
2021/08/13 01:23:38;;;;;;;8.63;7.82;;;;;;;24.49;67.16;96044.88;5007443;28;20226;-86
2021/08/13 01:26:12;;;;;;;8.35;7.65;;;;;;;24.40;67.43;96055.09;5009139;28;20198;-86
2021/08/13 01:28:54;;;;;;;8.43;7.57;;;;;;;24.36;67.47;96057.41;5008325;28;20203;-85
2021/08/13 01:31:35;;;;;;;8.30;7.28;;;;;;;24.24;67.64;96059.44;5008969;28;20225;-87
2021/08/13 01:34:25;;;;;;;7.88;7.18;;;;;;;24.23;67.42;96068.34;5008976;28;20198;-86
2021/08/13 01:36:57;;;;;;;7.95;7.18;;;;;;;24.19;67.46;96067.25;5009257;28;20203;-85
2021/08/13 01:39:29;;;;;;;8.15;7.43;;;;;;;24.14;67.46;96061.16;5008856;28;20253;-87
2021/08/13 01:42:03;;;;;;;8.18;7.38;;;;;;;24.09;67.68;96056.63;5008847;28;20201;-87
2021/08/13 01:44:37;;;;;;;8.93;7.72;;;;;;;24.02;68.32;96051.59;5008785;28;20280;-86
2021/08/13 01:47:13;;;;;;;8.27;7.47;;;;;;;24.05;68.47;96056.31;5010812;28;20199;-87
2021/08/13 01:49:44;;;;;;;9.95;7.55;;;;;;;24.01;68.66;96054.47;5012624;28;20226;-87
2021/08/13 01:55:22;;;;;;;;;;;;;;;;;;;;;
2021/08/13 01:57:59;;;;;;;7.43;6.82;;;;;;;24.07;68.33;96051.59;5012647;28;20208;-87
2021/08/13 02:00:31;;;;;;;8.05;7.25;;;;;;;24.10;68.19;96060.84;5012679;28;20242;-86
2021/08/13 02:03:10;;;;;;;8.52;7.72;;;;;;;24.10;68.43;96066.09;5013278;28;20294;-84
2021/08/13 02:05:46;;;;;;;8.55;7.50;;;;;;;24.12;68.36;96064.03;5002819;28;20254;-87
2021/08/13 02:08:18;;;;;;;8.43;7.63;;;;;;;24.07;68.39;96062.13;5011856;28;20291;-87
2021/08/13 02:10:49;;;;;;;8.55;7.65;;;;;;;24.02;68.82;96063.94;5012370;28;20230;-86
2021/08/13 02:13:16;;;;;;;8.27;7.32;;;;;;;24.03;68.64;96065.53;5012146;28;20261;-86
2021/08/13 02:15:49;;;;;;;8.25;7.45;;;;;;;24.03;68.77;96055.81;5012395;28;20290;-86
2021/08/13 02:18:21;;;;;;;8.32;7.63;;;;;;;24.03;68.68;96068.16;5012198;28;20210;-87
2021/08/13 02:20:53;;;;;;;8.05;7.25;;;;;;;23.98;69.57;96070.75;5012249;28;20598;-85
2021/08/13 02:23:25;;;;;;;8.05;7.25;;;;;;;23.94;69.73;96062.53;5031046;28;20268;-87
2021/08/13 02:25:54;;;;;;;8.85;8.10;;;;;;;23.88;69.95;96078.50;5031573;28;20202;-87
2021/08/13 02:28:22;;;;;;;8.88;7.97;;;;;;;23.81;70.28;96067.41;5031848;28;20202;-84
2021/08/13 02:30:49;;;;;;;9.18;7.43;;;;;;;23.80;70.24;96068.47;5031782;28;20232;-86
2021/08/13 02:33:17;;;;;;;8.35;7.47;;;;;;;23.78;70.63;96063.44;5031591;28;20277;-84
2021/08/13 02:35:46;;;;;;;8.70;7.93;;;;;;;23.71;71.26;96068.88;5031674;28;20692;-85
2021/08/13 02:38:19;;;;;;;8.68;7.97;;;;;;;23.73;71.10;96060.75;5031626;28;20624;-87
2021/08/13 02:40:52;;;;;;;9.02;7.43;;;;;;;23.71;71.61;96065.47;5044057;28;20221;-86
2021/08/13 02:43:24;;;;;;;8.90;8.00;;;;;;;23.75;71.18;96062.09;5050935;28;20734;-86
2021/08/13 02:45:55;;;;;;;8.43;7.72;;;;;;;23.77;71.50;96060.00;5054820;28;20640;-86
2021/08/13 02:48:41;;;;;;;9.20;7.93;;;;;;;23.84;70.96;96059.03;5051576;28;20228;-87
2021/08/13 02:51:15;;;;;;;9.10;7.35;;;;;;;23.86;70.49;96065.63;5051132;28;20225;-87
2021/08/13 02:53:47;;;;;;;8.55;7.85;;;;;;;23.84;71.19;96061.66;5051346;28;20192;-87
2021/08/13 02:56:16;;;;;;;8.18;7.38;;;;;;;23.81;71.19;96062.94;5051009;28;20209;-87
2021/08/13 02:58:46;;;;;;;8.23;7.43;;;;;;;23.84;70.63;96067.72;5051349;28;20205;-87
2021/08/13 03:01:14;;;;;;;8.23;7.43;;;;;;;23.79;71.43;96072.91;5051240;28;20221;-86
2021/08/13 03:03:51;;;;;;;10.93;7.53;;;;;;;23.80;70.67;96061.38;5050645;28;20197;-87
2021/08/13 03:06:21;;;;;;;8.35;7.68;;;;;;;23.67;71.69;96067.00;5050583;28;20332;-88
2021/08/13 03:08:53;;;;;;;8.00;7.30;;;;;;;23.63;71.80;96061.47;5050864;28;20229;-87
2021/08/13 03:11:33;;;;;;;8.73;7.90;;;;;;;23.59;71.32;96073.50;5050727;28;20226;-86
2021/08/13 03:14:02;;;;;;;9.50;8.10;;;;;;;23.55;71.44;96069.75;5050402;28;20198;-87
2021/08/13 03:16:28;;;;;;;8.23;7.47;;;;;;;23.43;72.01;96069.09;5050864;28;20201;-86
2021/08/13 03:18:56;;;;;;;8.73;8.02;;;;;;;23.49;71.36;96067.28;5046634;28;20289;-86
2021/08/13 03:21:25;;;;;;;8.30;7.60;;;;;;;23.49;71.41;96069.91;5030907;28;20272;-84
2021/08/13 03:23:56;;;;;;;8.38;7.60;;;;;;;23.46;71.39;96076.47;5030733;28;20222;-85
2021/08/13 03:26:28;;;;;;;8.05;7.35;;;;;;;23.47;71.44;96070.19;5031146;28;20296;-86
2021/08/13 03:28:55;;;;;;;8.52;7.82;;;;;;;23.51;71.26;96078.34;5030353;28;20202;-87
2021/08/13 03:31:47;;;;;;;8.30;7.50;;;;;;;23.32;72.34;96078.66;5030249;28;20824;-87
2021/08/13 03:34:17;;;;;;;8.82;8.05;;;;;;;23.29;71.95;96075.72;5010873;28;20233;-84
2021/08/13 03:36:50;;;;;;;7.97;7.35;;;;;;;23.29;71.76;96068.63;5030368;28;20198;-86
2021/08/13 03:39:18;;;;;;;9.00;7.90;;;;;;;23.24;72.23;96073.06;5030238;28;20209;-84
2021/08/13 03:41:50;;;;;;;8.45;7.53;;;;;;;23.22;72.37;96080.38;5030446;28;20226;-86
2021/08/13 03:44:18;;;;;;;8.68;7.88;;;;;;;23.18;71.91;96082.69;5030134;28;20280;-87
2021/08/13 03:46:45;;;;;;;8.07;7.38;;;;;;;23.19;72.05;96070.34;5030114;28;20789;-84
2021/08/13 03:49:18;;;;;;;8.00;7.38;;;;;;;23.07;72.54;96073.09;5030087;28;20293;-87
2021/08/13 03:51:45;;;;;;;8.68;8.00;;;;;;;23.05;72.71;96070.72;5029940;28;20226;-86
2021/08/13 03:54:21;;;;;;;8.18;7.50;;;;;;;23.09;72.62;96076.28;5029838;28;20209;-84
2021/08/13 03:56:52;;;;;;;8.55;7.75;;;;;;;23.09;72.15;96081.53;5024886;28;20229;-86
2021/08/13 03:59:47;;;;;;;8.30;7.07;;;;;;;23.12;72.39;96072.34;5010072;28;20204;-85
2021/08/13 04:02:14;;;;;;;8.70;7.80;;;;;;;23.16;71.87;96078.72;5020815;28;20206;-86
2021/08/13 04:04:42;;;;;;;8.75;7.95;;;;;;;23.10;72.14;96083.09;5029959;28;20225;-87
2021/08/13 04:07:08;;;;;;;7.88;7.28;;;;;;;23.08;72.44;96088.63;5029451;28;20230;-87
2021/08/13 04:09:36;;;;;;;11.05;7.57;;;;;;;23.08;72.55;96085.22;5029602;28;20202;-84
2021/08/13 04:12:07;;;;;;;8.68;7.85;;;;;;;23.04;73.07;96095.41;5029590;28;20761;-87
2021/08/13 04:14:40;;;;;;;8.50;7.80;;;;;;;23.05;72.55;96093.56;5017278;28;20194;-85
2021/08/13 04:25:09;;;;;;;;;;;;;;;;;;;;;
2021/08/13 04:52:32;;;;;;;8.27;7.47;;;;;;;23.33;70.75;96114.41;4796351;29;20263;-87
2021/08/13 05:13:04;;;;;;;7.95;7.18;;;;;;;23.78;68.25;96121.31;4841093;29;20730;-86
2021/08/13 05:26:54;;;;;;;10.50;7.32;;;;;;;23.98;67.21;96124.16;4838498;29;20357;-87
2021/08/13 05:33:58;;;;;;;7.57;6.60;;;;;;;24.04;68.28;96138.16;4789227;29;20218;-85
2021/08/13 05:52:53;;;;;;;;;;;;;;;;;;;;;
2021/08/13 07:46:30;;;;;;;5.53;5.00;;;;;;;26.67;59.35;96231.31;4790637;29;20240;-87
2021/08/13 07:56:46;;;;;;;7.60;5.05;;;;;;;27.23;58.82;96228.72;4835141;29;20270;-87
2021/08/13 08:42:46;;;;;;;5.43;4.95;;;;;;;29.33;50.33;96228.25;4781556;29;20222;-88
2021/08/13 11:53:42;;;;;;;4.30;2.95;;;;;;;32.56;35.10;96174.78;4866025;28;20214;-87
2021/08/13 11:56:50;;;;;;;3.33;3.03;;;;;;;32.63;33.81;96174.38;5000420;28;20219;-88
2021/08/13 12:02:39;;;;;;;4.32;2.90;;;;;;;32.51;33.34;96172.25;5094125;22;20719;-86
2021/08/13 12:05:55;;;;;;;;;;;;;;;;;;;;;
2021/08/13 13:15:47;;;;;;;10.10;3.10;;;;;;;33.25;33.43;96148.56;4837974;29;20641;-88
2021/08/13 13:33:56;;;;;;;5.55;2.80;;;;;;;33.19;32.21;96128.44;4982313;28;20754;-88
2021/08/13 13:45:24;;;;;;;7.20;3.33;;;;;;;33.16;33.22;96124.50;5046261;28;20225;-87
2021/08/13 13:51:17;;;;;;;9.45;3.33;;;;;;;32.92;31.17;96124.06;5049463;22;20229;-86
2021/08/13 13:56:49;;;;;;;9.45;3.72;;;;;;;33.03;31.94;96116.59;5041892;28;20761;-87
2021/08/13 14:10:16;;;;;;;10.25;3.35;;;;;;;33.02;32.54;96115.81;4858220;29;20706;-87
2021/08/13 14:19:23;;;;;;;9.30;3.53;;;;;;;33.04;33.49;96118.94;4909543;28;20210;-83
2021/08/13 14:21:49;;;;;;;8.07;3.25;;;;;;;32.92;34.07;96111.50;5028738;28;20218;-83
2021/08/13 14:24:16;;;;;;;6.72;2.95;;;;;;;32.94;33.63;96116.53;5028955;28;20233;-83
2021/08/13 14:26:42;;;;;;;10.32;3.65;;;;;;;32.83;32.83;96104.56;5029588;28;20209;-84
2021/08/13 14:29:09;;;;;;;5.40;3.58;;;;;;;32.82;33.41;96103.75;5030008;28;20205;-81
2021/08/13 14:31:36;;;;;;;6.28;3.13;;;;;;;32.85;33.03;96100.50;5029372;28;20228;-81
2021/08/13 14:34:03;;;;;;;11.90;3.70;;;;;;;32.89;33.93;96103.34;5029219;28;20193;-80
2021/08/13 14:36:29;;;;;;;8.43;3.15;;;;;;;32.96;34.01;96103.69;5029522;28;20891;-82
2021/08/13 14:38:58;;;;;;;6.40;3.25;;;;;;;32.95;34.93;96100.22;5029522;28;20214;-83
2021/08/13 14:41:25;;;;;;;5.55;3.47;;;;;;;32.94;33.33;96095.97;5028039;28;20222;-83
2021/08/13 14:43:51;;;;;;;8.77;3.83;;;;;;;32.98;34.36;96104.16;5028695;28;20221;-87
2021/08/13 14:46:17;;;;;;;9.18;3.50;;;;;;;32.90;33.76;96091.56;5029041;28;20211;-83
2021/08/13 14:48:51;;;;;;;8.68;3.25;;;;;;;32.72;34.22;96095.19;5020152;28;20209;-85
2021/08/13 14:51:22;;;;;;;10.80;3.58;;;;;;;32.66;34.05;96088.41;5025434;28;20238;-82
2021/08/13 14:53:49;;;;;;;8.82;3.60;;;;;;;32.79;34.71;96093.69;5028334;28;20206;-85
2021/08/13 14:56:15;;;;;;;9.57;3.53;;;;;;;32.74;34.73;96085.03;5017141;28;20282;-82
2021/08/13 14:58:42;;;;;;;7.53;3.35;;;;;;;32.79;34.44;96090.25;5008773;28;20302;-83
2021/08/13 15:01:11;;;;;;;6.43;3.00;;;;;;;32.89;35.16;96082.00;5008287;28;20218;-85
2021/08/13 15:03:41;;;;;;;11.15;3.45;;;;;;;32.97;34.50;96091.91;5008846;28;20222;-83
2021/08/13 15:06:09;;;;;;;7.32;3.22;;;;;;;32.98;34.32;96084.69;5004348;28;20230;-83
2021/08/13 15:08:36;;;;;;;6.72;3.42;;;;;;;33.04;34.78;96086.94;5018589;28;20216;-87
2021/08/13 15:11:02;;;;;;;12.10;3.75;;;;;;;33.04;35.57;96086.94;5028460;28;20218;-86
2021/08/13 15:13:29;;;;;;;11.15;3.83;;;;;;;33.06;34.47;96092.75;5028173;28;20579;-85
2021/08/13 15:15:56;;;;;;;7.03;3.40;;;;;;;32.88;33.47;96091.09;5029146;28;20234;-86
2021/08/13 15:18:25;;;;;;;9.63;3.53;;;;;;;32.83;33.80;96093.88;5029073;28;20202;-85
2021/08/13 15:20:51;;;;;;;6.60;3.65;;;;;;;32.76;33.53;96096.19;5028035;28;20225;-86
2021/08/13 15:23:19;;;;;;;13.27;3.95;;;;;;;32.65;33.15;96086.84;5028349;28;20241;-86
2021/08/13 15:25:46;;;;;;;7.60;3.20;;;;;;;32.57;32.78;96097.16;5028113;28;20812;-84
2021/08/13 15:28:15;;;;;;;16.27;4.22;;;;;;;32.57;33.85;96091.81;5028551;28;20225;-86
2021/08/13 15:30:41;;;;;;;14.98;3.83;;;;;;;32.63;34.29;96089.03;5028184;28;20226;-85
2021/08/13 15:33:08;;;;;;;12.40;3.83;;;;;;;32.61;33.69;96097.31;5028115;28;20198;-85
2021/08/13 15:35:34;;;;;;;9.82;3.97;;;;;;;32.59;34.00;96092.28;5027914;28;20569;-86
2021/08/13 15:38:01;;;;;;;11.20;3.63;;;;;;;32.39;33.75;96090.13;5028754;28;20232;-85
2021/08/13 15:40:29;;;;;;;10.27;3.70;;;;;;;32.41;33.83;96092.50;5028014;28;20222;-85
2021/08/13 15:42:56;;;;;;;7.68;3.67;;;;;;;32.55;34.09;96093.19;5027363;28;20205;-85
2021/08/13 15:45:23;;;;;;;13.38;4.10;;;;;;;32.57;35.01;96083.03;5028045;28;20262;-82
2021/08/13 15:47:50;;;;;;;15.50;4.03;;;;;;;32.65;34.10;96084.19;5026143;28;20610;-83
2021/08/13 15:50:19;;;;;;;10.10;3.95;;;;;;;32.53;34.84;96082.84;5015273;28;20213;-85
2021/08/13 15:52:46;;;;;;;14.20;3.92;;;;;;;32.39;35.16;96082.13;5028243;28;20452;-85
2021/08/13 15:55:13;;;;;;;7.15;3.67;;;;;;;32.34;35.30;96071.56;5028855;28;20577;-83
2021/08/13 15:57:40;;;;;;;15.43;4.60;;;;;;;32.30;35.30;96073.28;5028993;28;20408;-83
2021/08/13 16:00:09;;;;;;;14.43;4.63;;;;;;;32.23;36.23;96080.91;5028917;28;20238;-86
2021/08/13 16:02:38;;;;;;;16.10;4.28;;;;;;;32.28;35.68;96085.34;5027528;28;20194;-88
2021/08/13 16:05:49;;;;;;;10.60;4.22;;;;;;;32.30;36.87;96083.16;5027969;28;20624;-87
2021/08/13 16:08:21;;;;;;;9.48;4.22;;;;;;;32.30;36.60;96089.28;5029057;28;20202;-87
2021/08/13 16:11:00;;;;;;;;;;;;;;;;;;;;;
2021/08/13 16:23:58;;;;;;;;;;;;;;;;;;;;;
2021/08/13 16:27:13;;;;;;;11.38;3.85;;;;;;;31.95;37.00;96090.81;4963159;28;20204;-88
2021/08/13 16:29:48;;;;;;;7.28;3.60;;;;;;;31.85;37.54;96088.41;5010633;28;20283;-87
2021/08/13 16:32:15;;;;;;;9.30;4.45;;;;;;;31.74;37.28;96089.72;5032847;28;20205;-83
2021/08/13 16:34:41;;;;;;;9.82;4.13;;;;;;;31.72;37.58;96083.91;5035399;28;20577;-83
2021/08/13 16:37:07;;;;;;;11.70;4.47;;;;;;;31.62;38.47;96098.16;5035466;28;20705;-81
2021/08/13 16:39:36;;;;;;;11.75;4.25;;;;;;;31.51;38.45;96105.59;5034635;28;20206;-81
2021/08/13 16:42:03;;;;;;;9.93;3.95;;;;;;;31.48;38.81;96100.06;5034355;28;20206;-82
2021/08/13 16:44:30;;;;;;;11.15;3.92;;;;;;;31.34;39.22;96096.63;5034313;28;20299;-82
2021/08/13 16:46:57;;;;;;;16.00;4.25;;;;;;;31.32;39.29;96102.25;5034497;28;20209;-82
2021/08/13 16:49:24;;;;;;;13.48;4.30;;;;;;;31.32;39.35;96102.25;5018310;28;20697;-82
2021/08/13 16:51:50;;;;;;;8.38;4.25;;;;;;;31.30;39.83;96098.28;5012744;28;20230;-82
2021/08/13 16:54:17;;;;;;;9.07;3.70;;;;;;;31.22;40.11;96097.88;5013212;28;20203;-81
2021/08/13 16:56:43;;;;;;;12.43;4.05;;;;;;;31.11;40.19;96101.03;5028706;28;20218;-82
2021/08/13 16:59:10;;;;;;;12.52;4.40;;;;;;;31.00;40.41;96092.41;5032230;28;20209;-84
2021/08/13 17:01:36;;;;;;;7.88;4.13;;;;;;;30.92;40.88;96099.22;5031530;28;20721;-85
2021/08/13 17:04:04;;;;;;;9.32;3.95;;;;;;;30.88;40.32;96092.13;5031124;28;20600;-85
2021/08/13 17:06:31;;;;;;;8.27;4.10;;;;;;;30.88;40.30;96094.78;5031333;28;20237;-84
2021/08/13 17:08:57;;;;;;;8.40;4.28;;;;;;;30.80;40.88;96090.13;5032592;28;20210;-85
2021/08/13 17:11:24;;;;;;;8.65;4.40;;;;;;;30.78;41.32;96092.31;5032262;28;20222;-84
2021/08/13 17:13:51;;;;;;;10.60;4.35;;;;;;;30.72;41.40;96098.78;5032297;28;20210;-84
2021/08/13 17:16:17;;;;;;;9.90;4.00;;;;;;;30.65;41.49;96098.34;5033152;28;20284;-84
2021/08/13 17:18:46;;;;;;;7.20;3.85;;;;;;;30.63;41.68;96097.84;5032712;28;20202;-84
2021/08/13 17:21:14;;;;;;;9.88;3.83;;;;;;;30.67;41.44;96098.84;5032332;28;20226;-84
2021/08/13 17:23:41;;;;;;;8.77;4.13;;;;;;;30.60;42.00;96098.47;5032712;28;20202;-85
2021/08/13 17:26:08;;;;;;;13.15;4.75;;;;;;;30.58;42.11;96103.28;5032598;28;20221;-84
2021/08/13 17:28:34;;;;;;;6.75;3.90;;;;;;;30.59;42.66;96097.66;5032964;28;20201;-85
2021/08/13 17:31:01;;;;;;;10.60;4.30;;;;;;;30.51;42.67;96109.72;5033256;28;20222;-84
2021/08/13 17:33:29;;;;;;;11.80;3.97;;;;;;;30.48;42.60;96104.97;5032113;28;20548;-83
2021/08/13 17:35:55;;;;;;;9.05;4.35;;;;;;;30.46;42.24;96104.47;5032331;28;20199;-85
2021/08/13 17:38:23;;;;;;;8.63;4.22;;;;;;;30.46;42.94;96106.34;5031986;28;20197;-84
2021/08/13 17:40:50;;;;;;;12.13;5.18;;;;;;;30.38;42.96;96102.50;5032585;28;20226;-85
2021/08/13 17:43:16;;;;;;;8.07;4.38;;;;;;;30.39;42.80;96109.38;5031500;28;20202;-85
2021/08/13 17:45:43;;;;;;;9.18;4.55;;;;;;;30.36;43.11;96114.47;5032042;28;20229;-84
2021/08/13 17:48:09;;;;;;;11.90;4.30;;;;;;;30.36;43.06;96114.47;5031986;28;20190;-84
2021/08/13 17:50:36;;;;;;;10.23;4.13;;;;;;;30.35;43.28;96110.25;5032340;28;20248;-85
2021/08/13 17:53:04;;;;;;;8.55;4.30;;;;;;;30.29;44.19;96109.53;5031661;28;20201;-84
2021/08/13 17:55:31;;;;;;;13.38;4.72;;;;;;;30.28;44.06;96123.09;5031963;28;20202;-84
2021/08/13 17:57:58;;;;;;;12.32;4.30;;;;;;;30.16;44.24;96119.03;5032035;28;20206;-84
2021/08/13 18:00:24;;;;;;;9.57;4.05;;;;;;;30.07;44.13;96119.94;5031709;28;20233;-85
2021/08/13 18:02:51;;;;;;;6.65;4.40;;;;;;;30.09;44.62;96113.25;5031818;28;20207;-84
2021/08/13 18:05:17;;;;;;;11.77;4.82;;;;;;;30.06;44.56;96123.66;5031445;28;20226;-85
2021/08/13 18:07:43;;;;;;;9.30;4.25;;;;;;;30.02;44.45;96120.03;5031698;28;20214;-86
2021/08/13 18:10:11;;;;;;;9.45;4.45;;;;;;;30.04;44.61;96115.19;5031799;28;20226;-84
2021/08/13 18:12:39;;;;;;;12.18;4.50;;;;;;;30.08;44.46;96119.66;5032213;28;20205;-85
2021/08/13 18:15:07;;;;;;;10.98;4.47;;;;;;;30.07;44.39;96122.59;5031232;28;20198;-85
2021/08/13 18:17:33;;;;;;;10.90;4.60;;;;;;;30.02;44.91;96130.66;5030990;28;20206;-85
2021/08/13 18:20:00;;;;;;;13.10;4.60;;;;;;;30.01;45.28;96134.38;5031042;28;20222;-84
2021/08/13 18:22:28;;;;;;;10.40;4.68;;;;;;;29.95;45.33;96138.94;5030671;28;20206;-85
2021/08/13 18:25:10;;;;;;;8.18;4.85;;;;;;;29.91;45.33;96143.22;5030777;28;20222;-85
2021/08/13 18:27:44;;;;;;;9.52;4.45;;;;;;;29.84;45.98;96148.88;5030578;28;20186;-84
2021/08/13 18:30:24;;;;;;;;;;;;;;;;;;;;;
2021/08/13 18:33:22;;;;;;;9.77;4.60;;;;;;;29.76;45.93;96143.44;5050071;28;20207;-85
2021/08/13 18:35:50;;;;;;;7.80;4.30;;;;;;;29.72;46.46;96151.16;5043123;28;20269;-84
2021/08/13 18:38:20;;;;;;;13.93;4.93;;;;;;;29.70;46.25;96150.66;5049878;28;20197;-84
2021/08/13 18:40:50;;;;;;;12.65;4.70;;;;;;;29.62;46.75;96150.50;5045322;28;20274;-84
2021/08/13 18:43:21;;;;;;;9.60;4.57;;;;;;;29.59;47.23;96161.69;5049310;28;20198;-84
2021/08/13 18:45:50;;;;;;;10.60;5.05;;;;;;;29.52;47.36;96162.03;5049762;28;20271;-83
2021/08/13 18:49:08;;;;;;;10.70;4.60;;;;;;;29.49;47.22;96165.22;5049931;28;20259;-84
2021/08/13 18:51:40;;;;;;;15.07;4.57;;;;;;;29.49;47.27;96160.72;5050393;28;20312;-84
2021/08/13 19:03:04;;;;;;;11.27;4.60;;;;;;;29.27;47.87;96178.97;5006946;28;20969;-85
2021/08/13 19:05:31;;;;;;;11.70;5.10;;;;;;;29.23;47.51;96179.81;5025058;28;20919;-84
2021/08/13 19:11:19;;;;;;;11.02;4.97;;;;;;;29.15;48.15;96189.97;5047663;28;20221;-86
2021/08/13 19:13:46;;;;;;;11.27;4.78;;;;;;;29.09;48.56;96190.28;5037295;28;20201;-87
2021/08/13 19:16:14;;;;;;;9.38;4.40;;;;;;;29.08;48.28;96184.19;5050421;28;20189;-85
2021/08/13 19:18:41;;;;;;;7.80;4.55;;;;;;;29.01;48.45;96189.03;5049026;28;20192;-85
2021/08/13 19:21:07;;;;;;;9.13;4.63;;;;;;;28.96;48.16;96185.63;5043651;28;20228;-85
2021/08/13 19:23:34;;;;;;;9.75;4.63;;;;;;;28.88;49.23;96195.75;5048683;28;20581;-82
2021/08/13 19:26:00;;;;;;;12.95;5.15;;;;;;;28.77;49.28;96196.88;5048842;28;20220;-85
2021/08/13 19:28:27;;;;;;;10.40;5.38;;;;;;;28.71;50.06;96200.63;5048811;28;20200;-85
2021/08/13 19:30:53;;;;;;;9.32;4.70;;;;;;;28.63;49.98;96198.56;5049344;28;20229;-86
2021/08/13 19:33:21;;;;;;;14.20;5.20;;;;;;;28.66;50.02;96207.84;5049560;28;20542;-87
2021/08/13 19:35:49;;;;;;;11.02;4.65;;;;;;;28.66;49.27;96211.28;5049660;28;20193;-86
2021/08/13 19:38:15;;;;;;;9.77;4.72;;;;;;;28.65;49.64;96214.22;5049782;28;20588;-83
2021/08/13 19:40:45;;;;;;;15.95;4.97;;;;;;;28.63;49.77;96214.47;5049244;28;20244;-82
2021/08/13 19:43:11;;;;;;;12.35;4.47;;;;;;;28.56;49.45;96214.00;5048565;28;20201;-84
2021/08/13 19:45:38;;;;;;;10.10;5.53;;;;;;;28.56;49.64;96214.00;5051669;28;20225;-86
2021/08/13 19:48:06;;;;;;;10.50;4.85;;;;;;;28.54;49.65;96211.59;5053470;28;20208;-85
2021/08/13 19:50:35;;;;;;;9.70;4.43;;;;;;;28.50;49.86;96207.91;5053476;28;20236;-87
2021/08/13 19:53:03;;;;;;;13.40;4.55;;;;;;;28.49;49.58;96208.19;5053562;28;20263;-85
2021/08/13 19:55:30;;;;;;;10.82;4.63;;;;;;;28.48;50.01;96215.34;5053422;28;20216;-86
2021/08/13 19:57:59;;;;;;;11.63;5.53;;;;;;;28.48;49.61;96217.22;5052509;28;20208;-86
2021/08/13 20:00:26;;;;;;;10.05;4.90;;;;;;;28.46;50.50;96211.41;5053809;28;20369;-85
2021/08/13 20:02:52;;;;;;;11.75;5.38;;;;;;;28.40;50.30;96218.59;5052968;28;20206;-86
2021/08/13 20:05:19;;;;;;;10.85;4.70;;;;;;;28.40;50.32;96226.53;5052828;28;21465;-86
2021/08/13 20:07:49;;;;;;;12.20;4.80;;;;;;;28.37;50.10;96221.78;5052982;28;20224;-85
2021/08/13 20:10:16;;;;;;;9.68;5.28;;;;;;;28.35;50.34;96220.47;5052911;28;20735;-85
2021/08/13 20:12:47;;;;;;;13.07;5.03;;;;;;;28.29;50.30;96218.94;5053155;28;20205;-86
2021/08/13 20:15:14;;;;;;;10.10;5.00;;;;;;;28.28;50.71;96215.50;5053611;28;20255;-85
2021/08/13 20:17:41;;;;;;;13.23;5.00;;;;;;;28.22;50.38;96213.13;5053904;28;20701;-86
2021/08/13 20:20:08;;;;;;;8.82;4.50;;;;;;;28.18;51.16;96213.63;5054132;28;20221;-84
2021/08/13 20:22:35;;;;;;;11.82;5.22;;;;;;;28.13;51.06;96211.00;5054634;28;20208;-84
2021/08/13 20:25:03;;;;;;;9.93;4.47;;;;;;;28.08;51.79;96204.97;5053462;28;20224;-85
2021/08/13 20:27:30;;;;;;;12.55;5.22;;;;;;;28.02;52.26;96206.84;5053667;28;20710;-86
2021/08/13 20:30:06;;;;;;;9.82;5.13;;;;;;;28.00;51.76;96216.91;5053328;28;20231;-86
2021/08/13 20:33:00;;;;;;;12.10;5.18;;;;;;;27.89;52.03;96212.72;5052914;28;20209;-85
2021/08/13 20:35:27;;;;;;;11.82;4.63;;;;;;;27.85;52.12;96220.41;5053736;28;20205;-85
2021/08/13 20:37:55;;;;;;;10.80;5.03;;;;;;;27.80;52.01;96230.22;5053111;28;20205;-85
2021/08/13 20:40:23;;;;;;;13.13;5.10;;;;;;;27.73;52.77;96232.34;5053744;28;20248;-85
2021/08/13 20:42:50;;;;;;;10.63;5.53;;;;;;;27.68;52.85;96232.38;5053838;28;20221;-86
2021/08/13 20:45:17;;;;;;;12.45;5.60;;;;;;;27.67;52.85;96238.72;5053527;28;20228;-85
2021/08/13 20:47:43;;;;;;;9.98;5.35;;;;;;;27.64;52.40;96226.03;5052442;28;20197;-85
2021/08/13 20:50:11;;;;;;;10.95;5.25;;;;;;;27.56;53.35;96222.03;5052025;28;20226;-86
2021/08/13 20:52:37;;;;;;;10.45;5.72;;;;;;;27.47;53.85;96226.31;5052479;28;20206;-86
2021/08/13 20:55:05;;;;;;;9.30;5.90;;;;;;;27.46;53.87;96224.72;5051963;28;20202;-86
2021/08/13 20:57:33;;;;;;;10.23;5.40;;;;;;;27.46;53.39;96220.22;5052512;28;20208;-85
2021/08/13 21:00:00;;;;;;;10.27;5.35;;;;;;;27.44;54.01;96221.53;5051816;28;20204;-86
2021/08/13 21:02:28;;;;;;;12.43;5.75;;;;;;;27.44;54.05;96219.69;5051933;28;20233;-84
2021/08/13 21:04:55;;;;;;;11.85;5.75;;;;;;;27.39;54.23;96217.03;5051685;28;20201;-84
2021/08/13 21:07:21;;;;;;;10.80;5.65;;;;;;;27.34;54.96;96217.03;5051742;28;20233;-82
2021/08/13 21:09:48;;;;;;;11.75;5.13;;;;;;;27.35;54.43;96209.91;5051259;28;20205;-82
2021/08/13 21:12:14;;;;;;;8.73;4.75;;;;;;;27.30;54.59;96209.94;5051674;28;20201;-82
2021/08/13 21:14:42;;;;;;;11.45;5.07;;;;;;;27.32;54.96;96215.75;5052738;28;20202;-83
2021/08/13 21:17:09;;;;;;;14.00;5.45;;;;;;;27.31;54.57;96214.16;5051690;28;20206;-82
2021/08/13 21:19:36;;;;;;;11.80;5.60;;;;;;;27.30;54.73;96213.38;5051754;28;20197;-84
2021/08/13 21:22:03;;;;;;;10.00;5.53;;;;;;;27.25;55.18;96221.31;5050711;28;20619;-82
2021/08/13 21:24:29;;;;;;;8.65;4.72;;;;;;;27.23;54.98;96219.97;5051154;28;20208;-84
2021/08/13 21:26:56;;;;;;;12.68;5.20;;;;;;;27.18;55.35;96210.19;5051711;28;20224;-83
2021/08/13 21:29:22;;;;;;;10.48;5.07;;;;;;;27.17;54.82;96209.41;5053378;28;20565;-84
2021/08/13 21:31:50;;;;;;;9.30;5.40;;;;;;;27.12;56.11;96216.56;5051201;28;20695;-83
2021/08/13 21:34:16;;;;;;;9.50;5.47;;;;;;;27.12;55.87;96216.56;5051411;28;20205;-83
2021/08/13 21:36:43;;;;;;;8.60;5.05;;;;;;;27.04;55.81;96220.53;5053084;28;20565;-81
2021/08/13 21:39:10;;;;;;;12.00;5.80;;;;;;;27.06;55.68;96218.41;5052663;28;20197;-83